Milano Linate Airport

LIML · Lombardy, 意大利

罗盘
风向 的 风向 340° Milano Linate Airport 17/35
风: 8 kt, 3 beaufort

8 kt

2 kt
改变
0 ft 1.000 2.000 3.000 4.000 5.000
Cloud Cloud Cloud Cloud
SCT 1.000
Cloud Cloud Cloud Cloud Cloud Cloud
BKN 2.000
METAR LIML 262150Z 34008KT 8000 RA SCT010 BKN020 06/05 Q1007 NOSIG

METAR Milano Linate Airport - LIML/LIN

Milano Linate Airport是,意大利中的中型机场。 该机场位于纬度45,44525和经度9,27705。 该机场有一条跑道: 17/35. 本场的ICAO机场代码为LIML。 该机场的IATA代码为LIN。 机场在Milano FIR中。

该航空气象观测是针对Milano Linate Airport在2024年2月26日 22:50, 当地时间进行的。

机场观察

风向为340°,速度为8 kt。

可见度为8 km。

有疏云,零星散落的云朵在1.000 ft的高度 和 碎云在2.000 ft的高度。 破损或更高的上限为2.000 ft。

当前天气为雨。 温度为6 °C,阵风为2 °C。 露点为5 °C,相对湿度为93%。 海平面上的气压为1007 hPa (QNH)。

白天

今天,太阳从07:07升起,在18:04降落。 这适用于Milano Linate Airport,世界夏令时可能有所不同。 当地时间与世界标准时间之间的时差为+1 小时。 当前,没有夏令时有效。

公司介绍

我们没有关于这个机场的公司信息。

体会

到Vliegles.nl去找飞行课程,跳伞和其他飞行体验。 浏览页面,了解Milano Linate Airport附近所有可用的活动。 你也可以使用搜索功能来寻找你所在地附近的特定飞行课程、跳伞或其他飞行体验。

跑道

Id 标题 侧风 逆风 侧风 %
17/35 175°-355° 2 kt 8 kt 26 %

逆风成分最大的方向会被突出显示,并用于横风计算。 这并不一定意味着这个方向在使用。

乌云

1.000 ft SCT 疏云,零星散落的云朵
2.000 ft BKN 碎云

温度 & 天气

天气
温度 6 °C
露点 5 °C
相对湿度 93%
风寒 2 °C
Kp-index 0 (0-9)

白天

日出
07:07 (8:02)
中午
12:35
日落
18:04

小工具

你想在你的网站上有一个关于Milano Linate Airport的当前航空天气(METAR)的小部件吗?

显示HTML代码
?>